sensor_id;sensor_type;location;lat;lon;timestamp;P1;durP1;ratioP1;P2;durP2;ratioP2
66721;SDS011;53633;49.932;10.884;2023-12-20T00:01:17;19.45;;;7.55;;
66721;SDS011;53633;49.932;10.884;2023-12-20T00:03:44;15.18;;;7.47;;
66721;SDS011;53633;49.932;10.884;2023-12-20T00:06:11;16.53;;;7.43;;
66721;SDS011;53633;49.932;10.884;2023-12-20T00:08:42;15.73;;;7.03;;
66721;SDS011;53633;49.932;10.884;2023-12-20T00:11:19;15.93;;;7.70;;
66721;SDS011;53633;49.932;10.884;2023-12-20T00:13:49;15.75;;;7.63;;
66721;SDS011;53633;49.932;10.884;2023-12-20T00:16:17;14.82;;;6.82;;
66721;SDS011;53633;49.932;10.884;2023-12-20T00:18:44;14.87;;;7.30;;
66721;SDS011;53633;49.932;10.884;2023-12-20T00:21:15;15.15;;;6.93;;
66721;SDS011;53633;49.932;10.884;2023-12-20T00:23:42;14.68;;;6.68;;
66721;SDS011;53633;49.932;10.884;2023-12-20T00:26:09;11.90;;;5.75;;
66721;SDS011;53633;49.932;10.884;2023-12-20T00:28:35;14.55;;;6.93;;
66721;SDS011;53633;49.932;10.884;2023-12-20T00:31:06;14.23;;;5.80;;
66721;SDS011;53633;49.932;10.884;2023-12-20T00:33:34;14.95;;;5.63;;
66721;SDS011;53633;49.932;10.884;2023-12-20T00:36:01;10.93;;;5.00;;
66721;SDS011;53633;49.932;10.884;2023-12-20T00:38:28;15.73;;;6.00;;
66721;SDS011;53633;49.932;10.884;2023-12-20T00:40:55;15.63;;;6.53;;
66721;SDS011;53633;49.932;10.884;2023-12-20T00:43:23;13.73;;;5.47;;
66721;SDS011;53633;49.932;10.884;2023-12-20T00:45:50;12.95;;;5.80;;
66721;SDS011;53633;49.932;10.884;2023-12-20T00:48:19;12.20;;;5.25;;
66721;SDS011;53633;49.932;10.884;2023-12-20T00:50:46;10.73;;;4.50;;
66721;SDS011;53633;49.932;10.884;2023-12-20T00:53:14;11.80;;;5.80;;
66721;SDS011;53633;49.932;10.884;2023-12-20T00:55:40;12.13;;;5.03;;
66721;SDS011;53633;49.932;10.884;2023-12-20T00:58:08;9.68;;;4.70;;
66721;SDS011;53633;49.932;10.884;2023-12-20T01:00:34;9.80;;;4.60;;
66721;SDS011;53633;49.932;10.884;2023-12-20T01:03:04;9.35;;;4.32;;
66721;SDS011;53633;49.932;10.884;2023-12-20T01:05:32;10.73;;;5.60;;
66721;SDS011;53633;49.932;10.884;2023-12-20T01:07:59;10.87;;;5.97;;
66721;SDS011;53633;49.932;10.884;2023-12-20T01:10:26;11.60;;;6.00;;
66721;SDS011;53633;49.932;10.884;2023-12-20T01:12:55;10.50;;;6.18;;
66721;SDS011;53633;49.932;10.884;2023-12-20T01:15:22;14.25;;;8.07;;
66721;SDS011;53633;49.932;10.884;2023-12-20T01:17:49;15.48;;;8.65;;
66721;SDS011;53633;49.932;10.884;2023-12-20T01:20:16;13.87;;;7.87;;
66721;SDS011;53633;49.932;10.884;2023-12-20T01:22:44;12.48;;;7.40;;
66721;SDS011;53633;49.932;10.884;2023-12-20T01:25:11;11.45;;;6.50;;
66721;SDS011;53633;49.932;10.884;2023-12-20T01:27:38;16.83;;;10.32;;
66721;SDS011;53633;49.932;10.884;2023-12-20T01:30:05;16.17;;;10.55;;
66721;SDS011;53633;49.932;10.884;2023-12-20T01:32:33;11.50;;;7.10;;
66721;SDS011;53633;49.932;10.884;2023-12-20T01:35:04;15.75;;;10.07;;
66721;SDS011;53633;49.932;10.884;2023-12-20T01:37:32;12.95;;;7.60;;
66721;SDS011;53633;49.932;10.884;2023-12-20T01:40:00;9.80;;;4.40;;
66721;SDS011;53633;49.932;10.884;2023-12-20T01:42:27;8.85;;;4.88;;
66721;SDS011;53633;49.932;10.884;2023-12-20T01:44:54;11.33;;;4.37;;
66721;SDS011;53633;49.932;10.884;2023-12-20T01:47:21;9.07;;;4.13;;
66721;SDS011;53633;49.932;10.884;2023-12-20T01:49:48;6.47;;;3.28;;
66721;SDS011;53633;49.932;10.884;2023-12-20T01:52:15;5.50;;;1.83;;
66721;SDS011;53633;49.932;10.884;2023-12-20T01:54:43;5.82;;;2.20;;
66721;SDS011;53633;49.932;10.884;2023-12-20T01:57:11;6.67;;;1.70;;
66721;SDS011;53633;49.932;10.884;2023-12-20T01:59:39;4.95;;;1.23;;
66721;SDS011;53633;49.932;10.884;2023-12-20T02:02:07;4.18;;;1.40;;
66721;SDS011;53633;49.932;10.884;2023-12-20T02:04:34;5.43;;;1.80;;
66721;SDS011;53633;49.932;10.884;2023-12-20T02:07:02;4.63;;;1.23;;
66721;SDS011;53633;49.932;10.884;2023-12-20T02:09:30;4.90;;;1.77;;
66721;SDS011;53633;49.932;10.884;2023-12-20T02:11:56;8.30;;;1.80;;
66721;SDS011;53633;49.932;10.884;2023-12-20T02:14:25;5.63;;;1.75;;
66721;SDS011;53633;49.932;10.884;2023-12-20T02:16:52;5.18;;;1.30;;
66721;SDS011;53633;49.932;10.884;2023-12-20T02:19:19;4.68;;;1.25;;
66721;SDS011;53633;49.932;10.884;2023-12-20T02:21:48;4.40;;;1.27;;
66721;SDS011;53633;49.932;10.884;2023-12-20T02:24:17;4.43;;;1.17;;
66721;SDS011;53633;49.932;10.884;2023-12-20T02:26:44;4.40;;;1.10;;
66721;SDS011;53633;49.932;10.884;2023-12-20T02:29:12;5.28;;;1.88;;
66721;SDS011;53633;49.932;10.884;2023-12-20T02:31:39;5.93;;;1.02;;
66721;SDS011;53633;49.932;10.884;2023-12-20T02:34:06;5.63;;;1.07;;
66721;SDS011;53633;49.932;10.884;2023-12-20T02:36:33;3.90;;;0.95;;
66721;SDS011;53633;49.932;10.884;2023-12-20T02:39:02;5.07;;;1.15;;
66721;SDS011;53633;49.932;10.884;2023-12-20T02:41:29;5.78;;;1.20;;
66721;SDS011;53633;49.932;10.884;2023-12-20T02:43:56;4.22;;;1.13;;
66721;SDS011;53633;49.932;10.884;2023-12-20T02:46:25;5.07;;;1.20;;
66721;SDS011;53633;49.932;10.884;2023-12-20T02:48:53;4.28;;;0.77;;
66721;SDS011;53633;49.932;10.884;2023-12-20T02:51:20;3.88;;;0.93;;
66721;SDS011;53633;49.932;10.884;2023-12-20T02:53:47;5.25;;;1.15;;
66721;SDS011;53633;49.932;10.884;2023-12-20T02:56:15;5.40;;;1.27;;
66721;SDS011;53633;49.932;10.884;2023-12-20T02:58:42;4.27;;;1.03;;
66721;SDS011;53633;49.932;10.884;2023-12-20T03:01:09;3.75;;;0.80;;
66721;SDS011;53633;49.932;10.884;2023-12-20T03:03:36;3.85;;;0.95;;
66721;SDS011;53633;49.932;10.884;2023-12-20T03:06:03;3.80;;;1.00;;
66721;SDS011;53633;49.932;10.884;2023-12-20T03:08:33;4.25;;;0.95;;
66721;SDS011;53633;49.932;10.884;2023-12-20T03:10:59;3.50;;;0.80;;
66721;SDS011;53633;49.932;10.884;2023-12-20T03:13:33;3.65;;;0.77;;
66721;SDS011;53633;49.932;10.884;2023-12-20T03:16:07;3.35;;;0.80;;
66721;SDS011;53633;49.932;10.884;2023-12-20T03:18:35;4.88;;;1.00;;
66721;SDS011;53633;49.932;10.884;2023-12-20T03:21:02;3.72;;;0.68;;
66721;SDS011;53633;49.932;10.884;2023-12-20T03:23:29;2.80;;;0.70;;
66721;SDS011;53633;49.932;10.884;2023-12-20T03:25:56;3.55;;;0.50;;
66721;SDS011;53633;49.932;10.884;2023-12-20T03:28:23;3.67;;;0.90;;
66721;SDS011;53633;49.932;10.884;2023-12-20T03:30:51;3.50;;;0.50;;
66721;SDS011;53633;49.932;10.884;2023-12-20T03:33:21;2.40;;;0.43;;
66721;SDS011;53633;49.932;10.884;2023-12-20T03:35:48;3.63;;;0.70;;
66721;SDS011;53633;49.932;10.884;2023-12-20T03:38:16;3.00;;;0.50;;
66721;SDS011;53633;49.932;10.884;2023-12-20T03:40:46;2.90;;;0.65;;
66721;SDS011;53633;49.932;10.884;2023-12-20T03:43:13;6.00;;;1.23;;
66721;SDS011;53633;49.932;10.884;2023-12-20T03:45:41;9.13;;;1.50;;
66721;SDS011;53633;49.932;10.884;2023-12-20T03:48:10;4.30;;;0.67;;
66721;SDS011;53633;49.932;10.884;2023-12-20T03:50:37;4.30;;;0.80;;
66721;SDS011;53633;49.932;10.884;2023-12-20T03:53:04;4.15;;;0.77;;
66721;SDS011;53633;49.932;10.884;2023-12-20T03:55:30;2.78;;;0.40;;
66721;SDS011;53633;49.932;10.884;2023-12-20T03:57:57;3.38;;;0.60;;
66721;SDS011;53633;49.932;10.884;2023-12-20T04:00:27;2.17;;;0.50;;
66721;SDS011;53633;49.932;10.884;2023-12-20T04:02:54;2.30;;;0.30;;
66721;SDS011;53633;49.932;10.884;2023-12-20T04:05:29;2.67;;;0.63;;
66721;SDS011;53633;49.932;10.884;2023-12-20T04:07:56;3.35;;;0.60;;
66721;SDS011;53633;49.932;10.884;2023-12-20T04:10:24;3.13;;;0.55;;
66721;SDS011;53633;49.932;10.884;2023-12-20T04:12:51;2.27;;;0.50;;
66721;SDS011;53633;49.932;10.884;2023-12-20T04:15:18;2.42;;;0.40;;
66721;SDS011;53633;49.932;10.884;2023-12-20T04:17:48;3.10;;;0.70;;
66721;SDS011;53633;49.932;10.884;2023-12-20T04:20:16;2.50;;;0.45;;
66721;SDS011;53633;49.932;10.884;2023-12-20T04:22:45;2.95;;;0.40;;
66721;SDS011;53633;49.932;10.884;2023-12-20T04:25:12;1.73;;;0.40;;
66721;SDS011;53633;49.932;10.884;2023-12-20T04:27:40;1.85;;;0.40;;
66721;SDS011;53633;49.932;10.884;2023-12-20T04:30:09;1.58;;;0.32;;
66721;SDS011;53633;49.932;10.884;2023-12-20T04:32:36;1.85;;;0.32;;
66721;SDS011;53633;49.932;10.884;2023-12-20T04:35:04;1.55;;;0.40;;
66721;SDS011;53633;49.932;10.884;2023-12-20T04:37:32;2.27;;;0.40;;
66721;SDS011;53633;49.932;10.884;2023-12-20T04:40:00;1.67;;;0.40;;
66721;SDS011;53633;49.932;10.884;2023-12-20T04:42:28;1.67;;;0.47;;
66721;SDS011;53633;49.932;10.884;2023-12-20T04:44:55;2.28;;;0.50;;
66721;SDS011;53633;49.932;10.884;2023-12-20T04:47:24;2.15;;;0.50;;
66721;SDS011;53633;49.932;10.884;2023-12-20T04:49:53;4.33;;;0.50;;
66721;SDS011;53633;49.932;10.884;2023-12-20T04:52:20;3.28;;;0.80;;
66721;SDS011;53633;49.932;10.884;2023-12-20T04:54:47;2.58;;;0.55;;
66721;SDS011;53633;49.932;10.884;2023-12-20T04:57:16;2.67;;;0.70;;
66721;SDS011;53633;49.932;10.884;2023-12-20T04:59:47;2.60;;;0.50;;
66721;SDS011;53633;49.932;10.884;2023-12-20T05:02:14;3.77;;;0.60;;
66721;SDS011;53633;49.932;10.884;2023-12-20T05:04:43;3.70;;;0.60;;
66721;SDS011;53633;49.932;10.884;2023-12-20T05:07:15;2.85;;;0.75;;
66721;SDS011;53633;49.932;10.884;2023-12-20T05:09:43;3.53;;;0.75;;
66721;SDS011;53633;49.932;10.884;2023-12-20T05:12:10;3.75;;;1.13;;
66721;SDS011;53633;49.932;10.884;2023-12-20T05:14:38;3.57;;;0.80;;
66721;SDS011;53633;49.932;10.884;2023-12-20T05:17:05;2.95;;;0.77;;
66721;SDS011;53633;49.932;10.884;2023-12-20T05:19:32;3.83;;;0.80;;
66721;SDS011;53633;49.932;10.884;2023-12-20T05:21:59;6.63;;;1.10;;
66721;SDS011;53633;49.932;10.884;2023-12-20T05:24:26;3.35;;;0.60;;
66721;SDS011;53633;49.932;10.884;2023-12-20T05:26:52;3.97;;;0.70;;
66721;SDS011;53633;49.932;10.884;2023-12-20T05:29:19;3.15;;;0.60;;
66721;SDS011;53633;49.932;10.884;2023-12-20T05:31:50;3.42;;;0.80;;
66721;SDS011;53633;49.932;10.884;2023-12-20T05:34:17;2.60;;;0.70;;
66721;SDS011;53633;49.932;10.884;2023-12-20T05:36:48;2.85;;;0.52;;
66721;SDS011;53633;49.932;10.884;2023-12-20T05:39:15;4.77;;;0.90;;
66721;SDS011;53633;49.932;10.884;2023-12-20T05:41:43;2.42;;;0.70;;
66721;SDS011;53633;49.932;10.884;2023-12-20T05:44:10;2.72;;;0.68;;
66721;SDS011;53633;49.932;10.884;2023-12-20T05:46:38;3.22;;;0.70;;
66721;SDS011;53633;49.932;10.884;2023-12-20T05:49:06;3.03;;;0.82;;
66721;SDS011;53633;49.932;10.884;2023-12-20T05:51:34;2.57;;;0.70;;
66721;SDS011;53633;49.932;10.884;2023-12-20T05:54:01;2.80;;;0.77;;
66721;SDS011;53633;49.932;10.884;2023-12-20T05:56:28;2.65;;;0.80;;
66721;SDS011;53633;49.932;10.884;2023-12-20T05:58:55;3.30;;;0.70;;
66721;SDS011;53633;49.932;10.884;2023-12-20T06:01:22;3.92;;;0.77;;
66721;SDS011;53633;49.932;10.884;2023-12-20T06:03:49;3.57;;;0.80;;
66721;SDS011;53633;49.932;10.884;2023-12-20T06:06:18;3.20;;;1.20;;
66721;SDS011;53633;49.932;10.884;2023-12-20T06:08:45;2.83;;;0.80;;
66721;SDS011;53633;49.932;10.884;2023-12-20T06:11:13;3.55;;;1.00;;
66721;SDS011;53633;49.932;10.884;2023-12-20T06:13:41;4.10;;;1.23;;
66721;SDS011;53633;49.932;10.884;2023-12-20T06:16:11;3.47;;;0.80;;
66721;SDS011;53633;49.932;10.884;2023-12-20T06:18:39;3.80;;;0.90;;
66721;SDS011;53633;49.932;10.884;2023-12-20T06:21:09;2.72;;;0.70;;
66721;SDS011;53633;49.932;10.884;2023-12-20T06:23:38;3.17;;;0.88;;
66721;SDS011;53633;49.932;10.884;2023-12-20T06:26:05;6.82;;;1.00;;
66721;SDS011;53633;49.932;10.884;2023-12-20T06:28:32;4.20;;;1.13;;
66721;SDS011;53633;49.932;10.884;2023-12-20T06:31:03;4.38;;;1.00;;
66721;SDS011;53633;49.932;10.884;2023-12-20T06:33:30;3.90;;;1.33;;
66721;SDS011;53633;49.932;10.884;2023-12-20T06:35:57;3.90;;;1.13;;
66721;SDS011;53633;49.932;10.884;2023-12-20T06:38:24;4.50;;;1.60;;
66721;SDS011;53633;49.932;10.884;2023-12-20T06:40:52;5.23;;;1.50;;
66721;SDS011;53633;49.932;10.884;2023-12-20T06:43:22;4.35;;;1.40;;
66721;SDS011;53633;49.932;10.884;2023-12-20T06:46:08;5.20;;;1.70;;
66721;SDS011;53633;49.932;10.884;2023-12-20T06:48:35;5.68;;;1.65;;
66721;SDS011;53633;49.932;10.884;2023-12-20T06:51:02;5.35;;;1.20;;
66721;SDS011;53633;49.932;10.884;2023-12-20T06:53:29;3.90;;;1.10;;
66721;SDS011;53633;49.932;10.884;2023-12-20T06:55:58;5.80;;;2.00;;
66721;SDS011;53633;49.932;10.884;2023-12-20T06:58:27;5.28;;;1.65;;
66721;SDS011;53633;49.932;10.884;2023-12-20T07:00:54;6.38;;;1.85;;
66721;SDS011;53633;49.932;10.884;2023-12-20T07:03:26;7.82;;;1.90;;
66721;SDS011;53633;49.932;10.884;2023-12-20T07:05:53;5.77;;;2.33;;
66721;SDS011;53633;49.932;10.884;2023-12-20T07:08:23;7.60;;;2.22;;
66721;SDS011;53633;49.932;10.884;2023-12-20T07:10:52;7.13;;;3.10;;
66721;SDS011;53633;49.932;10.884;2023-12-20T07:13:23;6.72;;;2.22;;
66721;SDS011;53633;49.932;10.884;2023-12-20T07:15:52;5.57;;;1.50;;
66721;SDS011;53633;49.932;10.884;2023-12-20T07:18:21;4.97;;;1.37;;
66721;SDS011;53633;49.932;10.884;2023-12-20T07:20:56;5.78;;;2.10;;
66721;SDS011;53633;49.932;10.884;2023-12-20T07:23:32;5.80;;;1.80;;
66721;SDS011;53633;49.932;10.884;2023-12-20T07:26:09;6.47;;;2.10;;
66721;SDS011;53633;49.932;10.884;2023-12-20T07:28:44;8.15;;;2.83;;
66721;SDS011;53633;49.932;10.884;2023-12-20T07:31:17;5.93;;;2.03;;
66721;SDS011;53633;49.932;10.884;2023-12-20T07:33:55;7.03;;;2.75;;
66721;SDS011;53633;49.932;10.884;2023-12-20T07:36:30;7.05;;;3.40;;
66721;SDS011;53633;49.932;10.884;2023-12-20T07:39:04;7.20;;;2.65;;
66721;SDS011;53633;49.932;10.884;2023-12-20T07:41:39;6.65;;;2.53;;
66721;SDS011;53633;49.932;10.884;2023-12-20T07:44:25;8.03;;;2.70;;
66721;SDS011;53633;49.932;10.884;2023-12-20T07:46:56;7.70;;;2.70;;
66721;SDS011;53633;49.932;10.884;2023-12-20T07:49:31;7.95;;;3.40;;
66721;SDS011;53633;49.932;10.884;2023-12-20T07:52:05;7.97;;;3.38;;
66721;SDS011;53633;49.932;10.884;2023-12-20T07:54:40;10.07;;;2.97;;
66721;SDS011;53633;49.932;10.884;2023-12-20T08:03:40;6.30;;;2.72;;
66721;SDS011;53633;49.932;10.884;2023-12-20T08:06:21;5.70;;;2.08;;
66721;SDS011;53633;49.932;10.884;2023-12-20T08:09:03;7.43;;;3.35;;
66721;SDS011;53633;49.932;10.884;2023-12-20T08:11:51;7.30;;;3.17;;
66721;SDS011;53633;49.932;10.884;2023-12-20T08:14:31;8.35;;;3.78;;
66721;SDS011;53633;49.932;10.884;2023-12-20T08:17:13;6.47;;;2.75;;
66721;SDS011;53633;49.932;10.884;2023-12-20T08:19:46;7.20;;;2.53;;
66721;SDS011;53633;49.932;10.884;2023-12-20T08:22:22;5.90;;;2.25;;
66721;SDS011;53633;49.932;10.884;2023-12-20T08:24:52;6.47;;;1.93;;
66721;SDS011;53633;49.932;10.884;2023-12-20T08:27:21;7.65;;;1.95;;
66721;SDS011;53633;49.932;10.884;2023-12-20T08:29:55;7.13;;;2.58;;
66721;SDS011;53633;49.932;10.884;2023-12-20T08:32:38;5.97;;;2.10;;
66721;SDS011;53633;49.932;10.884;2023-12-20T08:35:36;9.77;;;2.83;;
66721;SDS011;53633;49.932;10.884;2023-12-20T08:38:16;9.07;;;2.97;;
66721;SDS011;53633;49.932;10.884;2023-12-20T08:40:46;7.43;;;2.92;;
66721;SDS011;53633;49.932;10.884;2023-12-20T08:43:16;9.88;;;3.40;;
66721;SDS011;53633;49.932;10.884;2023-12-20T08:45:46;7.35;;;2.58;;
66721;SDS011;53633;49.932;10.884;2023-12-20T08:48:13;8.68;;;2.20;;
66721;SDS011;53633;49.932;10.884;2023-12-20T08:50:44;8.57;;;2.13;;
66721;SDS011;53633;49.932;10.884;2023-12-20T08:53:15;7.15;;;2.20;;
66721;SDS011;53633;49.932;10.884;2023-12-20T08:55:45;7.45;;;1.95;;
66721;SDS011;53633;49.932;10.884;2023-12-20T08:58:17;6.90;;;1.98;;
66721;SDS011;53633;49.932;10.884;2023-12-20T09:00:47;5.05;;;1.35;;
66721;SDS011;53633;49.932;10.884;2023-12-20T09:03:26;6.63;;;1.47;;
66721;SDS011;53633;49.932;10.884;2023-12-20T09:06:12;6.18;;;1.50;;
66721;SDS011;53633;49.932;10.884;2023-12-20T09:08:47;7.35;;;1.95;;
66721;SDS011;53633;49.932;10.884;2023-12-20T09:11:18;5.35;;;1.30;;
66721;SDS011;53633;49.932;10.884;2023-12-20T09:14:10;4.28;;;1.33;;
66721;SDS011;53633;49.932;10.884;2023-12-20T09:16:42;5.60;;;1.37;;
66721;SDS011;53633;49.932;10.884;2023-12-20T09:19:14;5.53;;;1.42;;
66721;SDS011;53633;49.932;10.884;2023-12-20T09:24:36;7.65;;;1.52;;
66721;SDS011;53633;49.932;10.884;2023-12-20T09:27:35;4.40;;;1.23;;
66721;SDS011;53633;49.932;10.884;2023-12-20T09:30:31;6.37;;;1.60;;
66721;SDS011;53633;49.932;10.884;2023-12-20T09:33:07;6.68;;;1.73;;
66721;SDS011;53633;49.932;10.884;2023-12-20T09:35:35;5.97;;;1.83;;
66721;SDS011;53633;49.932;10.884;2023-12-20T09:38:20;7.63;;;2.30;;
66721;SDS011;53633;49.932;10.884;2023-12-20T09:40:54;6.90;;;1.60;;
66721;SDS011;53633;49.932;10.884;2023-12-20T09:43:29;5.47;;;1.57;;
66721;SDS011;53633;49.932;10.884;2023-12-20T09:46:02;6.95;;;1.70;;
66721;SDS011;53633;49.932;10.884;2023-12-20T09:48:36;5.82;;;1.60;;
66721;SDS011;53633;49.932;10.884;2023-12-20T09:51:15;11.02;;;2.70;;
66721;SDS011;53633;49.932;10.884;2023-12-20T09:53:45;10.45;;;2.92;;
66721;SDS011;53633;49.932;10.884;2023-12-20T09:56:31;12.27;;;2.63;;
66721;SDS011;53633;49.932;10.884;2023-12-20T10:00:53;11.90;;;2.90;;
66721;SDS011;53633;49.932;10.884;2023-12-20T10:02:05;13.02;;;2.65;;
66721;SDS011;53633;49.932;10.884;2023-12-20T10:04:55;15.43;;;3.10;;
66721;SDS011;53633;49.932;10.884;2023-12-20T10:10:41;7.60;;;1.83;;
66721;SDS011;53633;49.932;10.884;2023-12-20T10:13:58;7.13;;;1.70;;
66721;SDS011;53633;49.932;10.884;2023-12-20T10:16:40;8.07;;;1.92;;
66721;SDS011;53633;49.932;10.884;2023-12-20T10:19:30;5.57;;;1.20;;
66721;SDS011;53633;49.932;10.884;2023-12-20T10:22:23;8.38;;;1.30;;
66721;SDS011;53633;49.932;10.884;2023-12-20T10:25:35;8.37;;;1.33;;
66721;SDS011;53633;49.932;10.884;2023-12-20T10:28:15;6.88;;;1.13;;
66721;SDS011;53633;49.932;10.884;2023-12-20T10:30:49;6.07;;;1.00;;
66721;SDS011;53633;49.932;10.884;2023-12-20T10:36:16;5.13;;;1.63;;
66721;SDS011;53633;49.932;10.884;2023-12-20T10:38:52;4.57;;;1.37;;
66721;SDS011;53633;49.932;10.884;2023-12-20T10:41:24;7.60;;;1.73;;
66721;SDS011;53633;49.932;10.884;2023-12-20T10:44:06;7.78;;;1.50;;
66721;SDS011;53633;49.932;10.884;2023-12-20T10:46:43;9.30;;;2.63;;
66721;SDS011;53633;49.932;10.884;2023-12-20T10:49:19;5.82;;;1.70;;
66721;SDS011;53633;49.932;10.884;2023-12-20T10:52:04;7.83;;;1.73;;
66721;SDS011;53633;49.932;10.884;2023-12-20T10:54:44;5.90;;;1.88;;
66721;SDS011;53633;49.932;10.884;2023-12-20T10:57:18;9.88;;;2.22;;
66721;SDS011;53633;49.932;10.884;2023-12-20T11:00:06;12.63;;;2.60;;
66721;SDS011;53633;49.932;10.884;2023-12-20T11:02:56;11.32;;;3.03;;
66721;SDS011;53633;49.932;10.884;2023-12-20T11:05:55;9.17;;;2.23;;
66721;SDS011;53633;49.932;10.884;2023-12-20T11:08:32;11.35;;;1.67;;
66721;SDS011;53633;49.932;10.884;2023-12-20T11:11:20;11.30;;;1.98;;
66721;SDS011;53633;49.932;10.884;2023-12-20T11:17:12;11.95;;;2.88;;
66721;SDS011;53633;49.932;10.884;2023-12-20T11:23:06;9.70;;;2.10;;
66721;SDS011;53633;49.932;10.884;2023-12-20T11:25:48;9.48;;;1.98;;
66721;SDS011;53633;49.932;10.884;2023-12-20T11:28:26;6.05;;;1.40;;
66721;SDS011;53633;49.932;10.884;2023-12-20T11:31:09;8.10;;;1.67;;
66721;SDS011;53633;49.932;10.884;2023-12-20T11:33:52;6.33;;;1.10;;
66721;SDS011;53633;49.932;10.884;2023-12-20T11:37:03;10.05;;;2.03;;
66721;SDS011;53633;49.932;10.884;2023-12-20T11:43:19;8.50;;;1.40;;
66721;SDS011;53633;49.932;10.884;2023-12-20T11:46:08;8.20;;;2.10;;
66721;SDS011;53633;49.932;10.884;2023-12-20T11:48:48;9.33;;;1.83;;
66721;SDS011;53633;49.932;10.884;2023-12-20T11:51:21;7.97;;;1.80;;
66721;SDS011;53633;49.932;10.884;2023-12-20T11:54:06;9.57;;;1.90;;
66721;SDS011;53633;49.932;10.884;2023-12-20T11:56:49;6.15;;;1.45;;
66721;SDS011;53633;49.932;10.884;2023-12-20T11:59:32;7.07;;;0.95;;
66721;SDS011;53633;49.932;10.884;2023-12-20T12:02:06;5.67;;;1.50;;
66721;SDS011;53633;49.932;10.884;2023-12-20T12:07:47;7.72;;;1.98;;
66721;SDS011;53633;49.932;10.884;2023-12-20T12:10:47;13.43;;;1.80;;
66721;SDS011;53633;49.932;10.884;2023-12-20T12:16:23;6.53;;;0.80;;
66721;SDS011;53633;49.932;10.884;2023-12-20T12:22:10;9.63;;;2.00;;
66721;SDS011;53633;49.932;10.884;2023-12-20T12:24:42;14.20;;;4.10;;
66721;SDS011;53633;49.932;10.884;2023-12-20T12:27:20;17.73;;;4.32;;
66721;SDS011;53633;49.932;10.884;2023-12-20T12:30:02;8.27;;;1.23;;
66721;SDS011;53633;49.932;10.884;2023-12-20T12:32:42;10.13;;;2.60;;
66721;SDS011;53633;49.932;10.884;2023-12-20T12:35:30;7.55;;;2.50;;
66721;SDS011;53633;49.932;10.884;2023-12-20T12:37:58;10.27;;;2.00;;
66721;SDS011;53633;49.932;10.884;2023-12-20T12:40:39;6.28;;;1.10;;
66721;SDS011;53633;49.932;10.884;2023-12-20T12:43:18;5.20;;;1.30;;
66721;SDS011;53633;49.932;10.884;2023-12-20T12:45:53;7.68;;;1.88;;
66721;SDS011;53633;49.932;10.884;2023-12-20T12:48:31;6.03;;;2.33;;
66721;SDS011;53633;49.932;10.884;2023-12-20T12:51:03;7.28;;;2.35;;
66721;SDS011;53633;49.932;10.884;2023-12-20T12:53:33;8.52;;;2.15;;
66721;SDS011;53633;49.932;10.884;2023-12-20T12:56:02;4.87;;;1.40;;
66721;SDS011;53633;49.932;10.884;2023-12-20T12:58:29;7.90;;;1.30;;
66721;SDS011;53633;49.932;10.884;2023-12-20T13:01:20;5.10;;;1.30;;
66721;SDS011;53633;49.932;10.884;2023-12-20T13:04:07;6.78;;;1.55;;
66721;SDS011;53633;49.932;10.884;2023-12-20T13:06:43;4.50;;;1.52;;
66721;SDS011;53633;49.932;10.884;2023-12-20T13:09:14;7.63;;;1.80;;
66721;SDS011;53633;49.932;10.884;2023-12-20T13:12:02;5.95;;;1.00;;
66721;SDS011;53633;49.932;10.884;2023-12-20T13:14:33;5.35;;;1.30;;
66721;SDS011;53633;49.932;10.884;2023-12-20T13:17:10;6.72;;;1.60;;
66721;SDS011;53633;49.932;10.884;2023-12-20T13:19:55;8.05;;;1.88;;
66721;SDS011;53633;49.932;10.884;2023-12-20T13:22:35;9.00;;;1.47;;
66721;SDS011;53633;49.932;10.884;2023-12-20T13:25:15;9.13;;;2.03;;
66721;SDS011;53633;49.932;10.884;2023-12-20T13:27:55;8.63;;;2.15;;
66721;SDS011;53633;49.932;10.884;2023-12-20T13:30:24;8.02;;;1.55;;
66721;SDS011;53633;49.932;10.884;2023-12-20T13:33:06;4.55;;;1.42;;
66721;SDS011;53633;49.932;10.884;2023-12-20T13:35:43;8.43;;;1.80;;
66721;SDS011;53633;49.932;10.884;2023-12-20T13:38:19;7.57;;;1.90;;
66721;SDS011;53633;49.932;10.884;2023-12-20T13:41:09;7.43;;;2.60;;
66721;SDS011;53633;49.932;10.884;2023-12-20T13:43:45;12.75;;;3.58;;
66721;SDS011;53633;49.932;10.884;2023-12-20T13:47:15;12.48;;;2.55;;
66721;SDS011;53633;49.932;10.884;2023-12-20T13:49:05;8.23;;;1.43;;
66721;SDS011;53633;49.932;10.884;2023-12-20T13:51:36;4.78;;;1.10;;
66721;SDS011;53633;49.932;10.884;2023-12-20T13:54:24;5.50;;;1.40;;
66721;SDS011;53633;49.932;10.884;2023-12-20T13:57:13;7.30;;;1.40;;
66721;SDS011;53633;49.932;10.884;2023-12-20T13:59:59;4.93;;;1.20;;
66721;SDS011;53633;49.932;10.884;2023-12-20T14:02:32;7.80;;;1.40;;
66721;SDS011;53633;49.932;10.884;2023-12-20T14:05:07;6.15;;;1.40;;
66721;SDS011;53633;49.932;10.884;2023-12-20T14:07:40;6.20;;;1.48;;
66721;SDS011;53633;49.932;10.884;2023-12-20T14:10:22;9.25;;;1.33;;
66721;SDS011;53633;49.932;10.884;2023-12-20T14:12:54;8.20;;;1.48;;
66721;SDS011;53633;49.932;10.884;2023-12-20T14:15:32;6.87;;;1.27;;
66721;SDS011;53633;49.932;10.884;2023-12-20T14:18:23;9.02;;;1.75;;
66721;SDS011;53633;49.932;10.884;2023-12-20T14:21:06;9.38;;;1.80;;
66721;SDS011;53633;49.932;10.884;2023-12-20T14:23:56;6.32;;;1.42;;
66721;SDS011;53633;49.932;10.884;2023-12-20T14:26:54;6.82;;;1.45;;
66721;SDS011;53633;49.932;10.884;2023-12-20T14:29:53;7.23;;;1.50;;
66721;SDS011;53633;49.932;10.884;2023-12-20T14:32:47;9.93;;;1.75;;
66721;SDS011;53633;49.932;10.884;2023-12-20T14:35:22;8.55;;;1.70;;
66721;SDS011;53633;49.932;10.884;2023-12-20T14:37:55;4.90;;;1.38;;
66721;SDS011;53633;49.932;10.884;2023-12-20T14:40:29;7.13;;;1.40;;
66721;SDS011;53633;49.932;10.884;2023-12-20T14:43:11;5.57;;;1.70;;
66721;SDS011;53633;49.932;10.884;2023-12-20T14:45:43;7.22;;;1.40;;
66721;SDS011;53633;49.932;10.884;2023-12-20T14:48:11;11.18;;;2.30;;
66721;SDS011;53633;49.932;10.884;2023-12-20T14:51:12;6.57;;;1.77;;
66721;SDS011;53633;49.932;10.884;2023-12-20T14:53:54;7.07;;;1.27;;
66721;SDS011;53633;49.932;10.884;2023-12-20T14:56:36;9.27;;;1.57;;
66721;SDS011;53633;49.932;10.884;2023-12-20T14:59:19;8.45;;;1.48;;
66721;SDS011;53633;49.932;10.884;2023-12-20T15:02:05;5.70;;;1.02;;
66721;SDS011;53633;49.932;10.884;2023-12-20T15:04:45;10.38;;;1.50;;
66721;SDS011;53633;49.932;10.884;2023-12-20T15:07:15;8.93;;;1.65;;
66721;SDS011;53633;49.932;10.884;2023-12-20T15:09:44;8.37;;;1.47;;
66721;SDS011;53633;49.932;10.884;2023-12-20T15:12:12;5.45;;;1.27;;
66721;SDS011;53633;49.932;10.884;2023-12-20T15:14:42;7.22;;;2.05;;
66721;SDS011;53633;49.932;10.884;2023-12-20T15:17:26;9.32;;;2.00;;
66721;SDS011;53633;49.932;10.884;2023-12-20T15:20:00;8.63;;;1.80;;
66721;SDS011;53633;49.932;10.884;2023-12-20T15:22:28;8.43;;;2.40;;
66721;SDS011;53633;49.932;10.884;2023-12-20T15:25:11;8.77;;;1.75;;
66721;SDS011;53633;49.932;10.884;2023-12-20T15:27:39;10.13;;;2.35;;
66721;SDS011;53633;49.932;10.884;2023-12-20T15:30:17;8.68;;;2.10;;
66721;SDS011;53633;49.932;10.884;2023-12-20T15:32:44;8.77;;;2.10;;
66721;SDS011;53633;49.932;10.884;2023-12-20T15:35:16;7.30;;;2.00;;
66721;SDS011;53633;49.932;10.884;2023-12-20T15:37:43;7.22;;;2.13;;
66721;SDS011;53633;49.932;10.884;2023-12-20T15:40:11;6.88;;;1.88;;
66721;SDS011;53633;49.932;10.884;2023-12-20T15:42:40;5.45;;;1.48;;
66721;SDS011;53633;49.932;10.884;2023-12-20T15:45:07;7.85;;;1.95;;